Terminal Aerodrome Forecast
Issued by NWS Corpus Christi, TX

Home | Current Version | Previous Version | Text Only | Print | Product List | Glossary On
Versions: 1 2 3 4 5 6 7 8 9 10 11 12 13 14 15 16 17 18 19 20
000
FTUS44 KCRP 290802 AAB
TAFVCT
TAF AMD
KVCT 290802Z 2908/3006 08008KT P6SM VCTS SCT008CB BKN030
      TEMPO 2910/2914 VRB15G25KT 4SM TSRA BR OVC015CB
     FM291400 04006KT P6SM -SHRA OVC018
     FM291700 07006KT P6SM VCSH OVC020
     FM291800 08007KT P6SM VCTS OVC035CB=

USA.gov is the U.S. government's official web portal to all federal, state and local government web resources and services.